Time;durP1;ratioP1;P1;durP2;ratioP2;P2;SDS_P1;SDS_P2;PMS_P1;PMS_P2;Temp;Humidity;BMP_temperature;BMP_pressure;BME280_temperature;BME280_humidity;BME280_pressure;Samples;Min_cycle;Max_cycle;Signal;HPM_P1;HPM_P2
2023/04/29 00:01:57;;;;;;;;;;;;;;;;;;5034403;28;19917;-23
2023/04/29 00:04:23;;;;;;;;;;;;;;;;;;5033301;28;19925;-23
2023/04/29 00:06:49;;;;;;;;;;;;;;;;;;5034451;28;19905;-23
2023/04/29 00:09:15;;;;;;;;;;;;;;;;;;5034426;28;19909;-23
2023/04/29 00:11:41;;;;;;;;;;;;;;;;;;5034375;28;19905;-23
2023/04/29 00:14:07;;;;;;;;;;;;;;;;;;5034556;28;20359;-23
2023/04/29 00:16:33;;;;;;;;;;;;;;;;;;5033427;28;20233;-23
2023/04/29 00:18:59;;;;;;;;;;;;;;;;;;5034306;28;20260;-24
2023/04/29 00:21:26;;;;;;;;;;;;;;;;;;5034255;28;19914;-23
2023/04/29 00:23:52;;;;;;;;;;;;;;;;;;5034278;28;20003;-23
2023/04/29 00:26:18;;;;;;;;;;;;;;;;;;5034555;28;19952;-23
2023/04/29 00:28:44;;;;;;;;;;;;;;;;;;5034539;28;20307;-23
2023/04/29 00:31:10;;;;;;;;;;;;;;;;;;5034280;28;20379;-23
2023/04/29 00:33:36;;;;;;;;;;;;;;;;;;5034440;28;19913;-23
2023/04/29 00:36:02;;;;;;;;;;;;;;;;;;5034159;28;19909;-23
2023/04/29 00:38:28;;;;;;;;;;;;;;;;;;5034477;28;20022;-23
2023/04/29 00:40:54;;;;;;;;;;;;;;;;;;5037293;28;19924;-23
2023/04/29 00:43:20;;;;;;;;;;;;;;;;;;5037823;28;19909;-23
2023/04/29 00:45:46;;;;;;;;;;;;;;;;;;5038015;28;19935;-23
2023/04/29 00:48:14;;;;;;;;;;;;;;;;;;5037834;28;19909;-23
2023/04/29 00:50:40;;;;;;;;;;;;;;;;;;5037720;28;20221;-23
2023/04/29 00:53:06;;;;;;;;;;;;;;;;;;5037589;28;20290;-22
2023/04/29 00:55:32;;;;;;;;;;;;;;;;;;5037606;28;19916;-23
2023/04/29 00:57:58;;;;;;;;;;;;;;;;;;5037508;28;19974;-23
2023/04/29 01:00:25;;;;;;;;;;;;;;;;;;5037424;28;19917;-22
2023/04/29 01:02:51;;;;;;;;;;;;;;;;;;5036262;28;19952;-22
2023/04/29 01:05:16;;;;;;;;;;;;;;;;;;5037348;28;19937;-23
2023/04/29 01:07:43;;;;;;;;;;;;;;;;;;5037360;28;19909;-23
2023/04/29 01:10:08;;;;;;;;;;;;;;;;;;5037562;28;19966;-23
2023/04/29 01:12:35;;;;;;;;;;;;;;;;;;5037202;28;20000;-23
2023/04/29 01:15:01;;;;;;;;;;;;;;;;;;5037221;28;19909;-23
2023/04/29 01:17:27;;;;;;;;;;;;;;;;;;5037120;28;20070;-23
2023/04/29 01:19:53;;;;;;;;;;;;;;;;;;5036113;28;19913;-23
2023/04/29 01:22:20;;;;;;;;;;;;;;;;;;5036700;28;19913;-23
2023/04/29 01:24:47;;;;;;;;;;;;;;;;;;5036984;28;19909;-23
2023/04/29 01:27:13;;;;;;;;;;;;;;;;;;5037286;28;19924;-22
2023/04/29 01:29:39;;;;;;;;;;;;;;;;;;5036926;28;19909;-23
2023/04/29 01:32:07;;;;;;;;;;;;;;;;;;5035798;28;20337;-22
2023/04/29 01:34:33;;;;;;;;;;;;;;;;;;5035899;28;19913;-23
2023/04/29 01:36:59;;;;;;;;;;;;;;;;;;5036794;28;19909;-23
2023/04/29 01:39:25;;;;;;;;;;;;;;;;;;5036790;28;19986;-22
2023/04/29 01:41:51;;;;;;;;;;;;;;;;;;5036824;28;19994;-23
2023/04/29 01:44:17;;;;;;;;;;;;;;;;;;5036695;28;19919;-23
2023/04/29 01:46:43;;;;;;;;;;;;;;;;;;5036661;28;20004;-23
2023/04/29 01:49:09;;;;;;;;;;;;;;;;;;5035592;28;19909;-23
2023/04/29 01:51:36;;;;;;;;;;;;;;;;;;5036202;28;19937;-23
2023/04/29 01:54:04;;;;;;;;;;;;;;;;;;5036486;28;19920;-23
2023/04/29 01:56:30;;;;;;;;;;;;;;;;;;5036457;28;19937;-23
2023/04/29 01:58:56;;;;;;;;;;;;;;;;;;5036414;28;20027;-23
2023/04/29 02:01:22;;;;;;;;;;;;;;;;;;5036328;28;19913;-23
2023/04/29 02:03:48;;;;;;;;;;;;;;;;;;5036000;28;20304;-23
2023/04/29 02:06:13;;;;;;;;;;;;;;;;;;5035229;28;20340;-23
2023/04/29 02:08:39;;;;;;;;;;;;;;;;;;5035186;28;19909;-22
2023/04/29 02:11:06;;;;;;;;;;;;;;;;;;5036418;28;19980;-22
2023/04/29 02:13:32;;;;;;;;;;;;;;;;;;5036035;28;19909;-22
2023/04/29 02:15:58;;;;;;;;;;;;;;;;;;5036059;28;19936;-22
2023/04/29 02:18:24;;;;;;;;;;;;;;;;;;5036046;28;19921;-23
2023/04/29 02:20:50;;;;;;;;;;;;;;;;;;5036158;28;20325;-22
2023/04/29 02:23:16;;;;;;;;;;;;;;;;;;5035805;28;19996;-23
2023/04/29 02:25:42;;;;;;;;;;;;;;;;;;5035865;28;19916;-22
2023/04/29 02:28:08;;;;;;;;;;;;;;;;;;5036010;28;19909;-22
2023/04/29 02:30:34;;;;;;;;;;;;;;;;;;5035863;28;20264;-23
2023/04/29 02:33:00;;;;;;;;;;;;;;;;;;5035668;28;19909;-22
2023/04/29 02:35:26;;;;;;;;;;;;;;;;;;5035701;28;19909;-22
2023/04/29 02:37:52;;;;;;;;;;;;;;;;;;5035575;28;19909;-22
2023/04/29 02:40:18;;;;;;;;;;;;;;;;;;5035807;28;19920;-23
2023/04/29 02:42:44;;;;;;;;;;;;;;;;;;5035562;28;19912;-23
2023/04/29 02:45:10;;;;;;;;;;;;;;;;;;5035824;28;19916;-23
2023/04/29 02:47:36;;;;;;;;;;;;;;;;;;5035478;28;19920;-23
2023/04/29 02:50:03;;;;;;;;;;;;;;;;;;5035428;28;20250;-23
2023/04/29 02:52:29;;;;;;;;;;;;;;;;;;5035331;28;19916;-23
2023/04/29 02:54:55;;;;;;;;;;;;;;;;;;5035576;28;19909;-23
2023/04/29 02:57:21;;;;;;;;;;;;;;;;;;5035261;28;19973;-22
2023/04/29 02:59:47;;;;;;;;;;;;;;;;;;5034195;28;19910;-22
2023/04/29 03:02:13;;;;;;;;;;;;;;;;;;5035142;28;19913;-23
2023/04/29 03:04:39;;;;;;;;;;;;;;;;;;5034203;28;19987;-23
2023/04/29 03:07:06;;;;;;;;;;;;;;;;;;5035410;28;19913;-23
2023/04/29 03:09:33;;;;;;;;;;;;;;;;;;5035139;28;19909;-23
2023/04/29 03:11:59;;;;;;;;;;;;;;;;;;5035066;28;19920;-23
2023/04/29 03:14:25;;;;;;;;;;;;;;;;;;5035027;28;20000;-22
2023/04/29 03:16:51;;;;;;;;;;;;;;;;;;5034969;28;19909;-23
2023/04/29 03:19:17;;;;;;;;;;;;;;;;;;5035253;28;20256;-22
2023/04/29 03:21:44;;;;;;;;;;;;;;;;;;5033866;28;19921;-23
2023/04/29 03:24:10;;;;;;;;;;;;;;;;;;5035216;28;20336;-23
2023/04/29 03:26:36;;;;;;;;;;;;;;;;;;5034790;28;19909;-23
2023/04/29 03:29:02;;;;;;;;;;;;;;;;;;5035086;28;19924;-22
2023/04/29 03:31:28;;;;;;;;;;;;;;;;;;5035368;28;19915;-23
2023/04/29 03:33:54;;;;;;;;;;;;;;;;;;5034939;28;20205;-23
2023/04/29 03:36:20;;;;;;;;;;;;;;;;;;5034698;28;19909;-23
2023/04/29 03:38:46;;;;;;;;;;;;;;;;;;5034624;28;19910;-23
2023/04/29 03:41:12;;;;;;;;;;;;;;;;;;5034535;28;19923;-23
2023/04/29 03:43:38;;;;;;;;;;;;;;;;;;5034588;28;19959;-23
2023/04/29 03:46:04;;;;;;;;;;;;;;;;;;5034599;28;19971;-23
2023/04/29 03:48:30;;;;;;;;;;;;;;;;;;5034554;28;19937;-23
2023/04/29 03:50:56;;;;;;;;;;;;;;;;;;5034601;28;19920;-23
2023/04/29 03:53:22;;;;;;;;;;;;;;;;;;5034369;28;20000;-23
2023/04/29 03:55:48;;;;;;;;;;;;;;;;;;5034441;28;19924;-23
2023/04/29 03:58:14;;;;;;;;;;;;;;;;;;5034384;28;19920;-23
2023/04/29 04:00:40;;;;;;;;;;;;;;;;;;5034312;28;19913;-23
2023/04/29 04:03:06;;;;;;;;;;;;;;;;;;5034359;28;20252;-23
2023/04/29 04:05:34;;;;;;;;;;;;;;;;;;5033858;28;20190;-23
2023/04/29 04:08:00;;;;;;;;;;;;;;;;;;5034240;28;19915;-27
2023/04/29 04:10:27;;;;;;;;;;;;;;;;;;5033097;28;19909;-22
2023/04/29 04:12:53;;;;;;;;;;;;;;;;;;5034033;28;19936;-23
2023/04/29 04:15:19;;;;;;;;;;;;;;;;;;5035987;28;19909;-22
2023/04/29 04:17:45;;;;;;;;;;;;;;;;;;5038044;28;20291;-22
2023/04/29 04:20:12;;;;;;;;;;;;;;;;;;5037964;28;19909;-23
2023/04/29 04:22:38;;;;;;;;;;;;;;;;;;5037804;28;20359;-22
2023/04/29 04:25:04;;;;;;;;;;;;;;;;;;5038232;28;19913;-22
2023/04/29 04:27:30;;;;;;;;;;;;;;;;;;5037967;28;19909;-22
2023/04/29 04:29:56;;;;;;;;;;;;;;;;;;5037923;28;20011;-23
2023/04/29 04:32:22;;;;;;;;;;;;;;;;;;5037872;28;19945;-23
2023/04/29 04:34:48;;;;;;;;;;;;;;;;;;5037999;28;19995;-23
2023/04/29 04:37:14;;;;;;;;;;;;;;;;;;5037996;28;19975;-23
2023/04/29 04:39:40;;;;;;;;;;;;;;;;;;5037630;28;19924;-22
2023/04/29 04:42:06;;;;;;;;;;;;;;;;;;5037803;28;19924;-23
2023/04/29 04:44:32;;;;;;;;;;;;;;;;;;5037907;28;19941;-23
2023/04/29 04:47:00;;;;;;;;;;;;;;;;;;5036626;28;19916;-23
2023/04/29 04:49:26;;;;;;;;;;;;;;;;;;5036651;28;19909;-23
2023/04/29 04:51:52;;;;;;;;;;;;;;;;;;5037588;28;19920;-23
2023/04/29 04:54:18;;;;;;;;;;;;;;;;;;5037449;28;20351;-23
2023/04/29 04:56:44;;;;;;;;;;;;;;;;;;5037494;28;19913;-23
2023/04/29 04:59:09;;;;;;;;;;;;;;;;;;5036274;28;19909;-23
2023/04/29 05:01:35;;;;;;;;;;;;;;;;;;5037376;28;19913;-23
2023/04/29 05:04:02;;;;;;;;;;;;;;;;;;5037169;28;19936;-23
2023/04/29 05:06:28;;;;;;;;;;;;;;;;;;5037441;28;20074;-24
2023/04/29 05:08:54;;;;;;;;;;;;;;;;;;5037256;28;20017;-24
2023/04/29 05:11:20;;;;;;;;;;;;;;;;;;5037147;28;19909;-24
2023/04/29 05:13:46;;;;;;;;;;;;;;;;;;5037112;28;19932;-24
2023/04/29 05:16:12;;;;;;;;;;;;;;;;;;5036117;28;19967;-24
2023/04/29 05:18:38;;;;;;;;;;;;;;;;;;5037174;28;19910;-24
2023/04/29 05:21:04;;;;;;;;;;;;;;;;;;5036003;28;19995;-24
2023/04/29 05:23:30;;;;;;;;;;;;;;;;;;5037250;28;20302;-24
2023/04/29 05:25:56;;;;;;;;;;;;;;;;;;5036347;28;19991;-24
2023/04/29 05:28:22;;;;;;;;;;;;;;;;;;5036754;28;19962;-24
2023/04/29 05:30:48;;;;;;;;;;;;;;;;;;5036692;28;20012;-24
2023/04/29 05:33:14;;;;;;;;;;;;;;;;;;5036606;28;19961;-24
2023/04/29 05:35:40;;;;;;;;;;;;;;;;;;5035778;28;19917;-25
2023/04/29 05:38:06;;;;;;;;;;;;;;;;;;5036764;28;19916;-24
2023/04/29 05:40:32;;;;;;;;;;;;;;;;;;5036804;28;20003;-24
2023/04/29 05:42:58;;;;;;;;;;;;;;;;;;5035277;28;20233;-24
2023/04/29 05:45:24;;;;;;;;;;;;;;;;;;5036666;28;19909;-24
2023/04/29 05:47:50;;;;;;;;;;;;;;;;;;5036258;28;19919;-24
2023/04/29 05:50:17;;;;;;;;;;;;;;;;;;5035290;28;19988;-24
2023/04/29 05:52:43;;;;;;;;;;;;;;;;;;5035182;28;20305;-24
2023/04/29 05:55:08;;;;;;;;;;;;;;;;;;5036389;28;19910;-24
2023/04/29 05:57:34;;;;;;;;;;;;;;;;;;5036086;28;19935;-24
2023/04/29 06:00:00;;;;;;;;;;;;;;;;;;5035985;28;20396;-24
2023/04/29 06:02:26;;;;;;;;;;;;;;;;;;5035760;28;19967;-24
2023/04/29 06:04:52;;;;;;;;;;;;;;;;;;5035717;28;19926;-24
2023/04/29 06:07:18;;;;;;;;;;;;;;;;;;5035643;28;19910;-24
2023/04/29 06:09:44;;;;;;;;;;;;;;;;;;5035878;28;19963;-24
2023/04/29 06:12:10;;;;;;;;;;;;;;;;;;5035724;28;19909;-24
2023/04/29 06:14:36;;;;;;;;;;;;;;;;;;5034512;28;20392;-24
2023/04/29 06:17:02;;;;;;;;;;;;;;;;;;5035322;28;19920;-24
2023/04/29 06:19:28;;;;;;;;;;;;;;;;;;5035309;28;19916;-24
2023/04/29 06:21:54;;;;;;;;;;;;;;;;;;5035292;28;19913;-24
2023/04/29 06:24:20;;;;;;;;;;;;;;;;;;5035609;28;19909;-23
2023/04/29 06:26:47;;;;;;;;;;;;;;;;;;5035295;28;20239;-23
2023/04/29 06:29:13;;;;;;;;;;;;;;;;;;5035447;28;19928;-23
2023/04/29 06:31:39;;;;;;;;;;;;;;;;;;5034301;28;19906;-24
2023/04/29 06:34:05;;;;;;;;;;;;;;;;;;5034933;28;19917;-24
2023/04/29 06:36:31;;;;;;;;;;;;;;;;;;5035001;28;19959;-24
2023/04/29 06:38:58;;;;;;;;;;;;;;;;;;5034269;28;19909;-23
2023/04/29 06:41:24;;;;;;;;;;;;;;;;;;5035181;28;20143;-24
2023/04/29 06:43:50;;;;;;;;;;;;;;;;;;5035129;28;20003;-24
2023/04/29 06:46:16;;;;;;;;;;;;;;;;;;5035461;28;20022;-24
2023/04/29 06:48:42;;;;;;;;;;;;;;;;;;5035038;28;19916;-24
2023/04/29 06:51:08;;;;;;;;;;;;;;;;;;5035201;28;19985;-24
2023/04/29 06:53:34;;;;;;;;;;;;;;;;;;5035016;28;19917;-24
2023/04/29 06:56:00;;;;;;;;;;;;;;;;;;5033814;28;19909;-24
2023/04/29 06:58:26;;;;;;;;;;;;;;;;;;5034799;28;19936;-24
2023/04/29 07:00:52;;;;;;;;;;;;;;;;;;5035234;28;20352;-24
2023/04/29 07:03:18;;;;;;;;;;;;;;;;;;5034750;28;19960;-24
2023/04/29 07:05:47;;;;;;;;;;;;;;;;;;5035463;28;19913;-24
2023/04/29 07:08:13;;;;;;;;;;;;;;;;;;5034998;28;19941;-24
2023/04/29 07:10:39;;;;;;;;;;;;;;;;;;5034913;28;19936;-24
2023/04/29 07:13:05;;;;;;;;;;;;;;;;;;5034703;28;19963;-24
2023/04/29 07:15:31;;;;;;;;;;;;;;;;;;5035218;28;19909;-24
2023/04/29 07:17:57;;;;;;;;;;;;;;;;;;5034728;28;19909;-24
2023/04/29 07:20:23;;;;;;;;;;;;;;;;;;5034565;28;20248;-23
2023/04/29 07:22:49;;;;;;;;;;;;;;;;;;5034698;28;19994;-24
2023/04/29 07:25:15;;;;;;;;;;;;;;;;;;5034564;28;19921;-23
2023/04/29 07:27:41;;;;;;;;;;;;;;;;;;5034478;28;19920;-24
2023/04/29 07:30:08;;;;;;;;;;;;;;;;;;5034470;28;19909;-24
2023/04/29 07:32:33;;;;;;;;;;;;;;;;;;5034697;28;20229;-24
2023/04/29 07:35:00;;;;;;;;;;;;;;;;;;5034723;28;19935;-24
2023/04/29 07:37:26;;;;;;;;;;;;;;;;;;5033354;28;20268;-24
2023/04/29 07:39:52;;;;;;;;;;;;;;;;;;5034675;28;19909;-24
2023/04/29 07:42:18;;;;;;;;;;;;;;;;;;5034273;28;19967;-24
2023/04/29 07:44:44;;;;;;;;;;;;;;;;;;5034247;28;19913;-24
2023/04/29 07:47:10;;;;;;;;;;;;;;;;;;5034110;28;19909;-24
2023/04/29 07:49:36;;;;;;;;;;;;;;;;;;5036279;28;19913;-24
2023/04/29 07:52:02;;;;;;;;;;;;;;;;;;5040662;28;20229;-23
2023/04/29 07:54:28;;;;;;;;;;;;;;;;;;5041160;28;20182;-24
2023/04/29 07:56:54;;;;;;;;;;;;;;;;;;5040758;28;19920;-24
2023/04/29 07:59:20;;;;;;;;;;;;;;;;;;5040786;28;20271;-24
2023/04/29 08:01:46;;;;;;;;;;;;;;;;;;5040792;28;19920;-24
2023/04/29 08:04:12;;;;;;;;;;;;;;;;;;5040689;28;19983;-24
2023/04/29 08:06:40;;;;;;;;;;;;;;;;;;5040698;28;20320;-24
2023/04/29 08:09:06;;;;;;;;;;;;;;;;;;5040696;28;19917;-24
2023/04/29 08:11:32;;;;;;;;;;;;;;;;;;5040641;28;19979;-24
2023/04/29 08:13:59;;;;;;;;;;;;;;;;;;5040639;28;19999;-23
2023/04/29 08:16:25;;;;;;;;;;;;;;;;;;5040715;28;20324;-24
2023/04/29 08:18:51;;;;;;;;;;;;;;;;;;5040699;28;19909;-24
2023/04/29 08:21:18;;;;;;;;;;;;;;;;;;5040841;28;19934;-24
2023/04/29 08:23:44;;;;;;;;;;;;;;;;;;5041173;28;19932;-24
2023/04/29 08:26:10;;;;;;;;;;;;;;;;;;5040497;28;20340;-23
2023/04/29 08:28:36;;;;;;;;;;;;;;;;;;5040809;28;20279;-23
2023/04/29 08:31:02;;;;;;;;;;;;;;;;;;5040699;28;19916;-23
2023/04/29 08:33:28;;;;;;;;;;;;;;;;;;5040850;28;19909;-23
2023/04/29 08:35:54;;;;;;;;;;;;;;;;;;5040860;28;20251;-23
2023/04/29 08:38:20;;;;;;;;;;;;;;;;;;5041121;28;20251;-23
2023/04/29 08:40:46;;;;;;;;;;;;;;;;;;5040354;28;20392;-23
2023/04/29 08:43:12;;;;;;;;;;;;;;;;;;5039980;28;19941;-23
2023/04/29 08:45:38;;;;;;;;;;;;;;;;;;5039786;28;19913;-23
2023/04/29 08:48:04;;;;;;;;;;;;;;;;;;5038627;28;19909;-24
2023/04/29 08:50:30;;;;;;;;;;;;;;;;;;5039688;28;19913;-24
2023/04/29 08:52:56;;;;;;;;;;;;;;;;;;5039599;28;19909;-23
2023/04/29 08:55:23;;;;;;;;;;;;;;;;;;5039703;28;19916;-23
2023/04/29 08:57:49;;;;;;;;;;;;;;;;;;5039732;28;20270;-23
2023/04/29 09:00:15;;;;;;;;;;;;;;;;;;5039897;28;20007;-23
2023/04/29 09:02:41;;;;;;;;;;;;;;;;;;5036942;28;19920;-24
2023/04/29 09:05:07;;;;;;;;;;;;;;;;;;5036320;28;20317;-24
2023/04/29 09:07:33;;;;;;;;;;;;;;;;;;5035415;28;19916;-23
2023/04/29 09:10:00;;;;;;;;;;;;;;;;;;5036413;28;20329;-23
2023/04/29 09:12:26;;;;;;;;;;;;;;;;;;5036490;28;19953;-23
2023/04/29 09:14:52;;;;;;;;;;;;;;;;;;5035221;28;19921;-23
2023/04/29 09:17:18;;;;;;;;;;;;;;;;;;5036699;28;19909;-23
2023/04/29 09:19:43;;;;;;;;;;;;;;;;;;5036545;28;19923;-23
2023/04/29 09:22:10;;;;;;;;;;;;;;;;;;5036724;28;19913;-24
2023/04/29 09:24:37;;;;;;;;;;;;;;;;;;5037333;28;19967;-24
2023/04/29 09:27:03;;;;;;;;;;;;;;;;;;5037153;28;20324;-23
2023/04/29 09:29:30;;;;;;;;;;;;;;;;;;5037005;28;20287;-23
2023/04/29 09:31:57;;;;;;;;;;;;;;;;;;5036737;28;19913;-23
2023/04/29 09:34:23;;;;;;;;;;;;;;;;;;5036763;28;19909;-24
2023/04/29 09:36:49;;;;;;;;;;;;;;;;;;5036715;28;19916;-24
2023/04/29 09:39:16;;;;;;;;;;;;;;;;;;5036564;28;20359;-23
2023/04/29 09:41:42;;;;;;;;;;;;;;;;;;5036243;28;19924;-23
2023/04/29 09:44:08;;;;;;;;;;;;;;;;;;5036403;28;19909;-23
2023/04/29 09:46:35;;;;;;;;;;;;;;;;;;5036565;28;19923;-23
2023/04/29 09:49:01;;;;;;;;;;;;;;;;;;5036443;28;20333;-23
2023/04/29 09:51:27;;;;;;;;;;;;;;;;;;5036472;28;19936;-23
2023/04/29 09:53:53;;;;;;;;;;;;;;;;;;5036245;28;19959;-24
2023/04/29 09:56:20;;;;;;;;;;;;;;;;;;5036403;28;20252;-24
2023/04/29 09:58:46;;;;;;;;;;;;;;;;;;5035340;28;19974;-23
2023/04/29 10:01:13;;;;;;;;;;;;;;;;;;5036228;28;20012;-23
2023/04/29 10:03:39;;;;;;;;;;;;;;;;;;5036073;28;19933;-23
2023/04/29 10:06:05;;;;;;;;;;;;;;;;;;5036454;28;19909;-23
2023/04/29 10:08:31;;;;;;;;;;;;;;;;;;5036265;28;19910;-23
2023/04/29 10:10:57;;;;;;;;;;;;;;;;;;5036219;28;19909;-23
2023/04/29 10:13:22;;;;;;;;;;;;;;;;;;5035552;28;19909;-23
2023/04/29 10:15:49;;;;;;;;;;;;;;;;;;5036083;28;19948;-24
2023/04/29 10:18:15;;;;;;;;;;;;;;;;;;5036144;28;19909;-23
2023/04/29 10:20:41;;;;;;;;;;;;;;;;;;5035964;28;19957;-23
2023/04/29 10:23:07;;;;;;;;;;;;;;;;;;5036180;28;19913;-23
2023/04/29 10:25:32;;;;;;;;;;;;;;;;;;5035887;28;20221;-23
2023/04/29 10:27:58;;;;;;;;;;;;;;;;;;5035819;28;19909;-23
2023/04/29 10:30:24;;;;;;;;;;;;;;;;;;5035653;28;19909;-24
2023/04/29 10:32:50;;;;;;;;;;;;;;;;;;5035469;28;20004;-24
2023/04/29 10:35:18;;;;;;;;;;;;;;;;;;5034605;28;20000;-23
2023/04/29 10:37:44;;;;;;;;;;;;;;;;;;5035634;28;20067;-23
2023/04/29 10:40:10;;;;;;;;;;;;;;;;;;5034566;28;20343;-24
2023/04/29 10:42:38;;;;;;;;;;;;;;;;;;5034470;28;19956;-24
2023/04/29 10:45:04;;;;;;;;;;;;;;;;;;5035404;28;19913;-24
2023/04/29 10:47:30;;;;;;;;;;;;;;;;;;5035500;28;20260;-24
2023/04/29 10:49:56;;;;;;;;;;;;;;;;;;5035739;28;19909;-23
2023/04/29 10:52:22;;;;;;;;;;;;;;;;;;5035405;28;20356;-24
2023/04/29 10:54:48;;;;;;;;;;;;;;;;;;5035446;28;20320;-23
2023/04/29 10:57:14;;;;;;;;;;;;;;;;;;5035333;28;20087;-24
2023/04/29 10:59:40;;;;;;;;;;;;;;;;;;5035492;28;20296;-25
2023/04/29 11:02:06;;;;;;;;;;;;;;;;;;5034946;28;20015;-25
2023/04/29 11:04:32;;;;;;;;;;;;;;;;;;5034016;28;19921;-25
2023/04/29 11:06:58;;;;;;;;;;;;;;;;;;5035231;28;19916;-22
2023/04/29 11:09:24;;;;;;;;;;;;;;;;;;5035211;28;19913;-22
2023/04/29 11:11:51;;;;;;;;;;;;;;;;;;5035063;28;20252;-22
2023/04/29 11:14:16;;;;;;;;;;;;;;;;;;5035153;28;19916;-22
2023/04/29 11:16:42;;;;;;;;;;;;;;;;;;5034969;28;19909;-22
2023/04/29 11:19:09;;;;;;;;;;;;;;;;;;5035240;28;19927;-22
2023/04/29 11:21:35;;;;;;;;;;;;;;;;;;5035414;28;19917;-22
2023/04/29 11:24:02;;;;;;;;;;;;;;;;;;5034617;28;19974;-22
2023/04/29 11:26:28;;;;;;;;;;;;;;;;;;5034802;28;20010;-22
2023/04/29 11:28:54;;;;;;;;;;;;;;;;;;5034962;28;19916;-22
2023/04/29 11:31:20;;;;;;;;;;;;;;;;;;5034867;28;19909;-22
2023/04/29 11:33:45;;;;;;;;;;;;;;;;;;5034771;28;19909;-22
2023/04/29 11:36:12;;;;;;;;;;;;;;;;;;5034797;28;19952;-22
2023/04/29 11:38:38;;;;;;;;;;;;;;;;;;5034621;28;19919;-23
2023/04/29 11:41:04;;;;;;;;;;;;;;;;;;5034598;28;19917;-22
2023/04/29 11:43:30;;;;;;;;;;;;;;;;;;5034670;28;19913;-22
2023/04/29 11:45:56;;;;;;;;;;;;;;;;;;5034657;28;20328;-23
2023/04/29 11:48:22;;;;;;;;;;;;;;;;;;5034635;28;19909;-23
2023/04/29 11:50:47;;;;;;;;;;;;;;;;;;5034630;28;20354;-22
2023/04/29 11:53:13;;;;;;;;;;;;;;;;;;5034790;28;20023;-23
2023/04/29 11:55:39;;;;;;;;;;;;;;;;;;5034578;28;19920;-22
2023/04/29 11:58:05;;;;;;;;;;;;;;;;;;5034505;28;19910;-22
2023/04/29 12:00:31;;;;;;;;;;;;;;;;;;5034565;28;19909;-22
2023/04/29 12:02:57;;;;;;;;;;;;;;;;;;5034319;28;19996;-22
2023/04/29 12:05:23;;;;;;;;;;;;;;;;;;5034641;28;19913;-22
2023/04/29 12:07:50;;;;;;;;;;;;;;;;;;5034543;28;19909;-31
2023/04/29 12:10:15;;;;;;;;;;;;;;;;;;5034777;28;19992;-23
2023/04/29 12:12:45;;;;;;;;;;;;;;;;;;5034699;28;20281;-22
2023/04/29 12:15:11;;;;;;;;;;;;;;;;;;5034507;28;19909;-22
2023/04/29 12:17:37;;;;;;;;;;;;;;;;;;5034482;28;20251;-22
2023/04/29 12:20:03;;;;;;;;;;;;;;;;;;5034643;28;19909;-23
2023/04/29 12:22:29;;;;;;;;;;;;;;;;;;5034240;28;20237;-22
2023/04/29 12:24:55;;;;;;;;;;;;;;;;;;5034440;28;19920;-22
2023/04/29 12:27:21;;;;;;;;;;;;;;;;;;5034313;28;19909;-22
2023/04/29 12:29:47;;;;;;;;;;;;;;;;;;5034366;28;19958;-22
2023/04/29 12:32:13;;;;;;;;;;;;;;;;;;5034431;28;19917;-22
2023/04/29 12:34:39;;;;;;;;;;;;;;;;;;5033346;28;20338;-22
2023/04/29 12:37:05;;;;;;;;;;;;;;;;;;5036142;28;20332;-22
2023/04/29 12:39:32;;;;;;;;;;;;;;;;;;5038266;28;19916;-22
2023/04/29 12:41:58;;;;;;;;;;;;;;;;;;5037875;28;20323;-22
2023/04/29 12:44:24;;;;;;;;;;;;;;;;;;5038458;28;19963;-22
2023/04/29 12:46:51;;;;;;;;;;;;;;;;;;5037956;28;19905;-22
2023/04/29 12:49:18;;;;;;;;;;;;;;;;;;5037861;28;19959;-22
2023/04/29 12:51:44;;;;;;;;;;;;;;;;;;5037735;28;19909;-22
2023/04/29 12:54:10;;;;;;;;;;;;;;;;;;5037850;28;19909;-22
2023/04/29 12:56:35;;;;;;;;;;;;;;;;;;5037723;28;19936;-22
2023/04/29 12:59:01;;;;;;;;;;;;;;;;;;5037643;28;19917;-22
2023/04/29 13:01:27;;;;;;;;;;;;;;;;;;5037517;28;19971;-22
2023/04/29 13:03:53;;;;;;;;;;;;;;;;;;5037316;28;19925;-22
2023/04/29 13:06:19;;;;;;;;;;;;;;;;;;5037523;28;19920;-22
2023/04/29 13:08:45;;;;;;;;;;;;;;;;;;5037420;28;19958;-22
2023/04/29 13:11:12;;;;;;;;;;;;;;;;;;5037685;28;20003;-22
2023/04/29 13:13:38;;;;;;;;;;;;;;;;;;5037370;28;19935;-22
2023/04/29 13:16:04;;;;;;;;;;;;;;;;;;5037372;28;19928;-22
2023/04/29 13:18:30;;;;;;;;;;;;;;;;;;5037567;28;19917;-22
2023/04/29 13:20:56;;;;;;;;;;;;;;;;;;5037214;28;20299;-22
2023/04/29 13:23:22;;;;;;;;;;;;;;;;;;5037154;28;19967;-22
2023/04/29 13:25:48;;;;;;;;;;;;;;;;;;5037465;28;19913;-22
2023/04/29 13:28:14;;;;;;;;;;;;;;;;;;5037100;28;19913;-22
2023/04/29 13:30:40;;;;;;;;;;;;;;;;;;5037390;28;20300;-22
2023/04/29 13:33:06;;;;;;;;;;;;;;;;;;5036986;28;19909;-22
2023/04/29 13:35:34;;;;;;;;;;;;;;;;;;5036258;28;19909;-22
2023/04/29 13:38:00;;;;;;;;;;;;;;;;;;5037261;28;19909;-22
2023/04/29 13:40:26;;;;;;;;;;;;;;;;;;5035898;28;20079;-22
2023/04/29 13:42:52;;;;;;;;;;;;;;;;;;5036743;28;19913;-22
2023/04/29 13:45:18;;;;;;;;;;;;;;;;;;5037077;28;19909;-22
2023/04/29 13:47:44;;;;;;;;;;;;;;;;;;5034899;28;20263;-22
2023/04/29 13:50:11;;;;;;;;;;;;;;;;;;5036768;28;19913;-22
2023/04/29 13:52:37;;;;;;;;;;;;;;;;;;5036630;28;19913;-22
2023/04/29 13:55:03;;;;;;;;;;;;;;;;;;5036628;28;20024;-22
2023/04/29 13:57:30;;;;;;;;;;;;;;;;;;5036601;28;19909;-22
2023/04/29 13:59:55;;;;;;;;;;;;;;;;;;5036570;28;19909;-22
2023/04/29 14:02:21;;;;;;;;;;;;;;;;;;5035397;28;19959;-22
2023/04/29 14:04:47;;;;;;;;;;;;;;;;;;5035360;28;19928;-22
2023/04/29 14:07:14;;;;;;;;;;;;;;;;;;5036455;28;19920;-22
2023/04/29 14:09:40;;;;;;;;;;;;;;;;;;5035380;28;19920;-22
2023/04/29 14:12:06;;;;;;;;;;;;;;;;;;5036495;28;20240;-22
2023/04/29 14:14:32;;;;;;;;;;;;;;;;;;5036266;28;19920;-22
2023/04/29 14:17:00;;;;;;;;;;;;;;;;;;5036235;28;19920;-22
2023/04/29 14:19:25;;;;;;;;;;;;;;;;;;5036719;28;20298;-22
2023/04/29 14:21:52;;;;;;;;;;;;;;;;;;5035978;28;19945;-22
2023/04/29 14:24:18;;;;;;;;;;;;;;;;;;5036050;28;19909;-22
2023/04/29 14:26:44;;;;;;;;;;;;;;;;;;5036297;28;19916;-22
2023/04/29 14:29:10;;;;;;;;;;;;;;;;;;5035934;28;19992;-27
2023/04/29 14:31:39;;;;;;;;;;;;;;;;;;5036212;28;19913;-22
2023/04/29 14:34:05;;;;;;;;;;;;;;;;;;5035804;28;20007;-22
2023/04/29 14:36:34;;;;;;;;;;;;;;;;;;5035828;28;20340;-22
2023/04/29 14:39:00;;;;;;;;;;;;;;;;;;5035851;28;19945;-22
2023/04/29 14:41:26;;;;;;;;;;;;;;;;;;5035720;28;19944;-22
2023/04/29 14:43:52;;;;;;;;;;;;;;;;;;5035898;28;19917;-22
2023/04/29 14:46:18;;;;;;;;;;;;;;;;;;5035922;28;19941;-22
2023/04/29 14:48:44;;;;;;;;;;;;;;;;;;5035598;28;19921;-22
2023/04/29 14:51:10;;;;;;;;;;;;;;;;;;5035828;28;19909;-22
2023/04/29 14:53:36;;;;;;;;;;;;;;;;;;5035453;28;19982;-22
2023/04/29 14:56:02;;;;;;;;;;;;;;;;;;5035443;28;19909;-22
2023/04/29 14:58:28;;;;;;;;;;;;;;;;;;5035344;28;19920;-22
2023/04/29 15:00:55;;;;;;;;;;;;;;;;;;5034333;28;19921;-22
2023/04/29 15:03:21;;;;;;;;;;;;;;;;;;5034057;28;19957;-22
2023/04/29 15:05:48;;;;;;;;;;;;;;;;;;5035277;28;19913;-22
2023/04/29 15:08:15;;;;;;;;;;;;;;;;;;5035259;28;19948;-22
2023/04/29 15:10:43;;;;;;;;;;;;;;;;;;5035305;28;19987;-22
2023/04/29 15:13:09;;;;;;;;;;;;;;;;;;5035140;28;19973;-22
2023/04/29 15:15:35;;;;;;;;;;;;;;;;;;5035172;28;19979;-22
2023/04/29 15:18:01;;;;;;;;;;;;;;;;;;5035139;28;19909;-22
2023/04/29 15:20:26;;;;;;;;;;;;;;;;;;5035137;28;19909;-22
2023/04/29 15:22:53;;;;;;;;;;;;;;;;;;5034934;28;19913;-22
2023/04/29 15:25:19;;;;;;;;;;;;;;;;;;5035075;28;19995;-22
2023/04/29 15:27:45;;;;;;;;;;;;;;;;;;5035030;28;19948;-22
2023/04/29 15:30:11;;;;;;;;;;;;;;;;;;5034011;28;19944;-22
2023/04/29 15:32:37;;;;;;;;;;;;;;;;;;5034901;28;19909;-22
2023/04/29 15:35:05;;;;;;;;;;;;;;;;;;5034927;28;19909;-22
2023/04/29 15:37:31;;;;;;;;;;;;;;;;;;5035130;28;19971;-22
2023/04/29 15:39:57;;;;;;;;;;;;;;;;;;5035062;28;19909;-22
2023/04/29 15:42:23;;;;;;;;;;;;;;;;;;5035117;28;19913;-22
2023/04/29 15:44:49;;;;;;;;;;;;;;;;;;5034770;28;20357;-23
2023/04/29 15:47:15;;;;;;;;;;;;;;;;;;5033696;28;19909;-22
2023/04/29 15:49:41;;;;;;;;;;;;;;;;;;5034701;28;20299;-22
2023/04/29 15:52:07;;;;;;;;;;;;;;;;;;5034604;28;19909;-22
2023/04/29 15:54:33;;;;;;;;;;;;;;;;;;5034665;28;19964;-22
2023/04/29 15:57:00;;;;;;;;;;;;;;;;;;5034703;28;19917;-22
2023/04/29 15:59:26;;;;;;;;;;;;;;;;;;5034899;28;19909;-22
2023/04/29 16:01:52;;;;;;;;;;;;;;;;;;5033541;28;19924;-22
2023/04/29 16:04:18;;;;;;;;;;;;;;;;;;5034473;28;20352;-22
2023/04/29 16:06:44;;;;;;;;;;;;;;;;;;5034864;28;19909;-22
2023/04/29 16:09:10;;;;;;;;;;;;;;;;;;5034526;28;20372;-23
2023/04/29 16:11:36;;;;;;;;;;;;;;;;;;5036729;28;19916;-22
2023/04/29 16:14:02;;;;;;;;;;;;;;;;;;5038628;28;19909;-22
2023/04/29 16:16:29;;;;;;;;;;;;;;;;;;5038430;28;19913;-22
2023/04/29 16:18:55;;;;;;;;;;;;;;;;;;5038699;28;19913;-22
2023/04/29 16:21:21;;;;;;;;;;;;;;;;;;5038502;28;19959;-22
2023/04/29 16:23:47;;;;;;;;;;;;;;;;;;5038260;28;19940;-22
2023/04/29 16:26:13;;;;;;;;;;;;;;;;;;5038248;28;19913;-23
2023/04/29 16:28:39;;;;;;;;;;;;;;;;;;5038531;28;19943;-22
2023/04/29 16:31:05;;;;;;;;;;;;;;;;;;5038181;28;19910;-22
2023/04/29 16:33:31;;;;;;;;;;;;;;;;;;5038098;28;19915;-23
2023/04/29 16:35:57;;;;;;;;;;;;;;;;;;5038133;28;20004;-23
2023/04/29 16:38:23;;;;;;;;;;;;;;;;;;5038074;28;19917;-22